10chiemaru — JD2376 — position and weather

sailwx.info

Track history (hours):
 
Tides and Currents Weather Stations Pressure Air Temp Water Temp Dewpoint Dewpoint Depression Visibility Wind Speed Wind Dir Waves Ship Positions

10chiemaru

Last reported at 2014-Sep-20 02:11 UTC. Time now 2014-Sep-21 06:10 UTC.
Position N 35°34' E 139°54'.

Length 72 m; draft 3.8 m.

Type: Ship. MMSI: 431000147.

Date/timePositionNaut miles runAvg speedWind from/ knotsBaromVisibWave heightAir tempDewpointWater temp
2014-Sep-20 02:11N 35°34' E 139°54'812.1
2014-Sep-20 01:33N 35°28' E 139°48'6 5.9
2014-Sep-20 00:34N 35°28' E 139°40'0 0.0
2014-Sep-19 23:34N 35°28' E 139°40'3 2.7
2014-Sep-19 22:33N 35°26' E 139°42'3 2.6
2014-Sep-19 21:28N 35°24' E 139°45'0 0.0
2014-Sep-19 20:31N 35°24' E 139°45'0 0.1
2014-Sep-19 19:33N 35°24' E 139°45'0 0.0
2014-Sep-19 18:33N 35°24' E 139°45'0 0.0
2014-Sep-19 17:33N 35°24' E 139°45'0 0.0
2014-Sep-19 16:33N 35°24' E 139°45'7 7.3
2014-Sep-19 15:33N 35°17' E 139°46'59 5.3
2014-Sep-19 04:28N 35°55' E 140°41'0 0.1
2014-Sep-18 23:24N 35°55' E 140°41'5 5.1
2014-Sep-18 22:29N 35°59' E 140°43'1 0.5
2014-Sep-18 21:33N 35°59' E 140°43'0 0.0
2014-Sep-18 20:33N 35°59' E 140°43'0 0.0
2014-Sep-18 19:33N 35°59' E 140°43'2 2.4
2014-Sep-18 18:33N 35°57' E 140°44'1212.2
2014-Sep-18 17:33N 35°48' E 140°53'1010.2
2014-Sep-18 16:33N 35°37' E 140°53'1311.2
2014-Sep-18 15:23N 35°27' E 140°44'1112.1
2014-Sep-18 14:29N 35°18' E 140°35'1112.4
2014-Sep-18 13:33N 35°09' E 140°27'1413.7
2014-Sep-18 12:32N 35°00' E 140°13'1413.4
2014-Sep-18 11:32N 34°53' E 139°59'1111.2
2014-Sep-18 10:31N 34°54' E 139°45'1111.3
2014-Sep-18 09:33N 35°05' E 139°44'1212.4
2014-Sep-18 08:33N 35°17' E 139°45'1111.1
2014-Sep-18 07:33N 35°28' E 139°40'0 0.0
2014-Sep-18 06:33N 35°28' E 139°40'0 0.0
2014-Sep-18 05:33N 35°28' E 139°40'1 0.5
2014-Sep-18 04:34N 35°28' E 139°40'6 5.4
2014-Sep-18 03:32N 35°24' E 139°45'0 0.0
2014-Sep-18 02:29N 35°24' E 139°45'0 0.0
2014-Sep-18 01:32N 35°24' E 139°45'0 0.0
2014-Sep-18 00:32N 35°24' E 139°45'0 0.0
2014-Sep-17 23:32N 35°24' E 139°45'0 0.0
2014-Sep-17 22:32N 35°24' E 139°45'0 0.0
2014-Sep-17 21:32N 35°24' E 139°45'0 0.0
2014-Sep-17 20:32N 35°24' E 139°45'0 0.0
2014-Sep-17 19:31N 35°24' E 139°45'0 0.0
2014-Sep-17 18:31N 35°24' E 139°45'0 0.0
2014-Sep-17 17:31N 35°24' E 139°45'0 0.0
2014-Sep-17 16:31N 35°24' E 139°45'0 0.0
2014-Sep-17 15:31N 35°24' E 139°45'0 0.0
2014-Sep-17 14:31N 35°24' E 139°45'2 2.1
2014-Sep-17 13:34N 35°25' E 139°47'1211.9
2014-Sep-17 12:33N 35°31' E 139°60'2 2.2
2014-Sep-17 11:34N 35°31' E 140°02'0 0.0
2014-Sep-17 10:34N 35°31' E 140°02'0 0.0
2014-Sep-17 09:33N 35°31' E 140°02'0 0.0
2014-Sep-17 08:34N 35°31' E 140°02'3 2.9
2014-Sep-17 07:33N 35°31' E 139°59'1 0.5
2014-Sep-17 06:29N 35°31' E 139°58'0 0.0
2014-Sep-17 05:29N 35°31' E 139°58'0 0.0
2014-Sep-17 04:29N 35°31' E 139°58'0 0.0
2014-Sep-17 03:29N 35°31' E 139°58'0 0.0
2014-Sep-17 02:32N 35°31' E 139°58'0 0.0
2014-Sep-17 01:32N 35°31' E 139°58'0 0.0
2014-Sep-17 00:29N 35°31' E 139°58'0 0.0
2014-Sep-16 23:32N 35°31' E 139°58'0 0.0
2014-Sep-16 22:32N 35°31' E 139°58'0 0.0
2014-Sep-16 21:33N 35°31' E 139°58'0 0.0
2014-Sep-16 20:33N 35°31' E 139°58'0 0.0
2014-Sep-16 19:33N 35°31' E 139°58'0 0.0
2014-Sep-16 18:33N 35°31' E 139°58'0 0.0
2014-Sep-16 17:33N 35°31' E 139°58'0 0.0
2014-Sep-16 16:33N 35°31' E 139°58'0 0.0
2014-Sep-16 15:33N 35°31' E 139°58'0 0.1
2014-Sep-16 14:33N 35°31' E 139°58'0 0.0
2014-Sep-16 13:33N 35°31' E 139°58'0 0.1
2014-Sep-16 12:33N 35°32' E 139°58'6 5.6
2014-Sep-16 11:33N 35°29' E 139°52'1212.3
2014-Sep-16 10:33N 35°18' E 139°45'1211.9
2014-Sep-16 09:33N 35°06' E 139°45'1612.5
2014-Sep-16 08:17N 34°57' E 139°29'4711.3
2014-Sep-16 04:09N 34°39' E 138°37'49 2.2
2014-Sep-15 06:06N 35°01' E 139°30'1112.4
2014-Sep-15 05:15N 35°07' E 139°42'912.5
2014-Sep-15 04:33N 35°15' E 139°46'1111.1
2014-Sep-15 03:33N 35°25' E 139°44'6 6.0
2014-Sep-15 02:33N 35°31' E 139°46'0 0.0
2014-Sep-15 01:33N 35°31' E 139°46'0 0.0
2014-Sep-15 00:33N 35°31' E 139°46'0 0.0
2014-Sep-14 23:33N 35°31' E 139°46'0 0.0
2014-Sep-14 22:33N 35°31' E 139°46'0 0.4
2014-Sep-14 21:33N 35°31' E 139°46'9 8.7
2014-Sep-14 20:33N 35°34' E 139°56'7 7.4
2014-Sep-14 19:33N 35°41' E 139°59'0 0.0
2014-Sep-14 18:33N 35°41' E 139°59'0 0.0
2014-Sep-14 17:33N 35°41' E 139°59'0 0.0
2014-Sep-14 16:33N 35°41' E 139°59'0 0.0
2014-Sep-14 15:33N 35°41' E 139°59'0 0.0
2014-Sep-14 14:33N 35°41' E 139°59'0 0.0
2014-Sep-14 13:33N 35°41' E 139°59'0 0.0
2014-Sep-14 12:33N 35°41' E 139°59'0 0.0
2014-Sep-14 11:33N 35°41' E 139°59'0 0.0
2014-Sep-14 10:33N 35°41' E 139°59'0 0.0
2014-Sep-14 09:33N 35°41' E 139°59'0 0.0
2014-Sep-14 08:33N 35°41' E 139°59'0 0.0
2014-Sep-14 07:33N 35°41' E 139°59'0 0.0
2014-Sep-14 06:33N 35°41' E 139°59'0 0.0
2014-Sep-14 05:33N 35°41' E 139°59'0 0.0
2014-Sep-14 04:33N 35°41' E 139°59'3 2.7
2014-Sep-14 03:33N 35°38' E 139°59'2 2.3
2014-Sep-14 02:33N 35°40' E 139°57'1 0.9
2014-Sep-14 01:33N 35°41' E 139°56'5 1.2
2014-Sep-13 21:34N 35°36' E 139°57'2 1.7
2014-Sep-13 20:20N 35°34' E 139°55'0 0.0
2014-Sep-13 19:33N 35°34' E 139°55'0 0.0
2014-Sep-13 18:30N 35°34' E 139°55'4 4.0
2014-Sep-13 17:33N 35°31' E 139°53'1111.2
2014-Sep-13 16:33N 35°22' E 139°45'1010.2
2014-Sep-13 15:32N 35°11' E 139°47'21 6.6
2014-Sep-13 12:19N 34°56' E 140°05'6910.0
2014-Sep-13 05:25N 35°58' E 140°43'3 3.7
2014-Sep-13 04:33N 35°55' E 140°41'0 0.0
2014-Sep-13 03:33N 35°55' E 140°41'0 0.0
2014-Sep-13 02:32N 35°55' E 140°41'0 0.0
2014-Sep-13 01:33N 35°55' E 140°41'0 0.0
2014-Sep-13 00:32N 35°55' E 140°41'0 0.0
2014-Sep-12 23:22N 35°55' E 140°41'2 3.1
2014-Sep-12 22:33N 35°57' E 140°42'2 2.2
2014-Sep-12 21:33N 35°59' E 140°43'0 0.0
2014-Sep-12 20:33N 35°59' E 140°43'0 0.0
2014-Sep-12 19:33N 35°59' E 140°43'0 0.0
2014-Sep-12 18:33N 35°59' E 140°43'0 0.0
2014-Sep-12 17:33N 35°59' E 140°43'0 0.0
2014-Sep-12 16:33N 35°59' E 140°43'0 0.0
2014-Sep-12 15:33N 35°59' E 140°43'0 0.0
2014-Sep-12 14:33N 35°59' E 140°43'3 3.3
2014-Sep-12 13:33N 35°56' E 140°45'1312.7
2014-Sep-12 12:33N 35°46' E 140°54'3612.0
2014-Sep-12 09:32N 35°15' E 140°32'1313.8
2014-Sep-12 08:33N 35°05' E 140°21'1414.0
2014-Sep-12 07:33N 34°57' E 140°07'19 9.6
2014-Sep-12 05:33N 34°57' E 139°43'1212.4
2014-Sep-12 04:33N 35°10' E 139°45'1212.4
2014-Sep-12 03:33N 35°22' E 139°42'7 6.6
2014-Sep-12 02:33N 35°28' E 139°40'0 0.0
2014-Sep-12 01:34N 35°28' E 139°40'0 0.0
2014-Sep-12 00:33N 35°28' E 139°40'0 0.0
2014-Sep-11 23:34N 35°28' E 139°40'3 2.9
2014-Sep-11 22:33N 35°26' E 139°43'3 2.7
2014-Sep-11 21:33N 35°24' E 139°45'0 0.0
2014-Sep-11 20:33N 35°24' E 139°45'0 0.1
2014-Sep-11 19:33N 35°24' E 139°45'0 0.0
2014-Sep-11 18:27N 35°24' E 139°45'0 0.0
2014-Sep-11 17:30N 35°24' E 139°45'6 6.3
2014-Sep-11 16:33N 35°18' E 139°45'1310.5
2014-Sep-11 15:18N 35°05' E 139°45'810.8
2014-Sep-11 14:33N 34°57' E 139°44'19 9.3
2014-Sep-11 12:33N 34°58' E 140°07'4010.0
2014-Sep-11 08:33N 35°26' E 140°42'1212.0
2014-Sep-11 07:32N 35°35' E 140°52'2110.6
2014-Sep-11 05:33N 35°56' E 140°45'4 3.1
2014-Sep-11 04:16N 35°55' E 140°41'0 0.0
2014-Sep-11 03:28N 35°55' E 140°41'0 0.0
2014-Sep-11 02:30N 35°55' E 140°41'1 0.5
2014-Sep-10 23:28N 35°56' E 140°42'4 3.9
2014-Sep-10 22:28N 35°59' E 140°43'0 0.1
2014-Sep-10 21:33N 35°59' E 140°43'  
Track history (hours):
 
Tides and Currents Weather Stations Pressure Air Temp Water Temp Dewpoint Dewpoint Depression Visibility Wind Speed Wind Dir Waves Ship Positions

10chiemaru

Last reported at 2014-Sep-20 02:11 UTC. Time now 2014-Sep-21 06:10 UTC.
Position N 35°34' E 139°54'.

Length 72 m; draft 3.8 m.

Type: Ship. MMSI: 431000147.

Date/timePositionNaut miles runAvg speedWind from/ knotsBaromVisibWave heightAir tempDewpointWater temp
2014-Sep-20 02:11N 35°34' E 139°54'812.1
2014-Sep-20 01:33N 35°28' E 139°48'6 5.9
2014-Sep-20 00:34N 35°28' E 139°40'0 0.0
2014-Sep-19 23:34N 35°28' E 139°40'3 2.7
2014-Sep-19 22:33N 35°26' E 139°42'3 2.6
2014-Sep-19 21:28N 35°24' E 139°45'0 0.0
2014-Sep-19 20:31N 35°24' E 139°45'0 0.1
2014-Sep-19 19:33N 35°24' E 139°45'0 0.0
2014-Sep-19 18:33N 35°24' E 139°45'0 0.0
2014-Sep-19 17:33N 35°24' E 139°45'0 0.0
2014-Sep-19 16:33N 35°24' E 139°45'7 7.3
2014-Sep-19 15:33N 35°17' E 139°46'59 5.3
2014-Sep-19 04:28N 35°55' E 140°41'0 0.1
2014-Sep-18 23:24N 35°55' E 140°41'5 5.1
2014-Sep-18 22:29N 35°59' E 140°43'1 0.5
2014-Sep-18 21:33N 35°59' E 140°43'0 0.0
2014-Sep-18 20:33N 35°59' E 140°43'0 0.0
2014-Sep-18 19:33N 35°59' E 140°43'2 2.4
2014-Sep-18 18:33N 35°57' E 140°44'1212.2
2014-Sep-18 17:33N 35°48' E 140°53'1010.2
2014-Sep-18 16:33N 35°37' E 140°53'1311.2
2014-Sep-18 15:23N 35°27' E 140°44'1112.1
2014-Sep-18 14:29N 35°18' E 140°35'1112.4
2014-Sep-18 13:33N 35°09' E 140°27'1413.7
2014-Sep-18 12:32N 35°00' E 140°13'1413.4
2014-Sep-18 11:32N 34°53' E 139°59'1111.2
2014-Sep-18 10:31N 34°54' E 139°45'1111.3
2014-Sep-18 09:33N 35°05' E 139°44'1212.4
2014-Sep-18 08:33N 35°17' E 139°45'1111.1
2014-Sep-18 07:33N 35°28' E 139°40'0 0.0
2014-Sep-18 06:33N 35°28' E 139°40'0 0.0
2014-Sep-18 05:33N 35°28' E 139°40'1 0.5
2014-Sep-18 04:34N 35°28' E 139°40'6 5.4
2014-Sep-18 03:32N 35°24' E 139°45'0 0.0
2014-Sep-18 02:29N 35°24' E 139°45'0 0.0
2014-Sep-18 01:32N 35°24' E 139°45'0 0.0
2014-Sep-18 00:32N 35°24' E 139°45'0 0.0
2014-Sep-17 23:32N 35°24' E 139°45'0 0.0
2014-Sep-17 22:32N 35°24' E 139°45'0 0.0
2014-Sep-17 21:32N 35°24' E 139°45'0 0.0
2014-Sep-17 20:32N 35°24' E 139°45'0 0.0
2014-Sep-17 19:31N 35°24' E 139°45'0 0.0
2014-Sep-17 18:31N 35°24' E 139°45'0 0.0
2014-Sep-17 17:31N 35°24' E 139°45'0 0.0
2014-Sep-17 16:31N 35°24' E 139°45'0 0.0
2014-Sep-17 15:31N 35°24' E 139°45'0 0.0
2014-Sep-17 14:31N 35°24' E 139°45'2 2.1
2014-Sep-17 13:34N 35°25' E 139°47'1211.9
2014-Sep-17 12:33N 35°31' E 139°60'2 2.2
2014-Sep-17 11:34N 35°31' E 140°02'0 0.0
2014-Sep-17 10:34N 35°31' E 140°02'0 0.0
2014-Sep-17 09:33N 35°31' E 140°02'0 0.0
2014-Sep-17 08:34N 35°31' E 140°02'3 2.9
2014-Sep-17 07:33N 35°31' E 139°59'1 0.5
2014-Sep-17 06:29N 35°31' E 139°58'0 0.0
2014-Sep-17 05:29N 35°31' E 139°58'0 0.0
2014-Sep-17 04:29N 35°31' E 139°58'0 0.0
2014-Sep-17 03:29N 35°31' E 139°58'0 0.0
2014-Sep-17 02:32N 35°31' E 139°58'0 0.0
2014-Sep-17 01:32N 35°31' E 139°58'0 0.0
2014-Sep-17 00:29N 35°31' E 139°58'0 0.0
2014-Sep-16 23:32N 35°31' E 139°58'0 0.0
2014-Sep-16 22:32N 35°31' E 139°58'0 0.0
2014-Sep-16 21:33N 35°31' E 139°58'0 0.0
2014-Sep-16 20:33N 35°31' E 139°58'0 0.0
2014-Sep-16 19:33N 35°31' E 139°58'0 0.0
2014-Sep-16 18:33N 35°31' E 139°58'0 0.0
2014-Sep-16 17:33N 35°31' E 139°58'0 0.0
2014-Sep-16 16:33N 35°31' E 139°58'0 0.0
2014-Sep-16 15:33N 35°31' E 139°58'0 0.1
2014-Sep-16 14:33N 35°31' E 139°58'0 0.0
2014-Sep-16 13:33N 35°31' E 139°58'0 0.1
2014-Sep-16 12:33N 35°32' E 139°58'6 5.6
2014-Sep-16 11:33N 35°29' E 139°52'1212.3
2014-Sep-16 10:33N 35°18' E 139°45'1211.9
2014-Sep-16 09:33N 35°06' E 139°45'1612.5
2014-Sep-16 08:17N 34°57' E 139°29'4711.3
2014-Sep-16 04:09N 34°39' E 138°37'49 2.2
2014-Sep-15 06:06N 35°01' E 139°30'1112.4
2014-Sep-15 05:15N 35°07' E 139°42'912.5
2014-Sep-15 04:33N 35°15' E 139°46'1111.1
2014-Sep-15 03:33N 35°25' E 139°44'6 6.0
2014-Sep-15 02:33N 35°31' E 139°46'0 0.0
2014-Sep-15 01:33N 35°31' E 139°46'0 0.0
2014-Sep-15 00:33N 35°31' E 139°46'0 0.0
2014-Sep-14 23:33N 35°31' E 139°46'0 0.0
2014-Sep-14 22:33N 35°31' E 139°46'0 0.4
2014-Sep-14 21:33N 35°31' E 139°46'9 8.7
2014-Sep-14 20:33N 35°34' E 139°56'7 7.4
2014-Sep-14 19:33N 35°41' E 139°59'0 0.0
2014-Sep-14 18:33N 35°41' E 139°59'0 0.0
2014-Sep-14 17:33N 35°41' E 139°59'0 0.0
2014-Sep-14 16:33N 35°41' E 139°59'0 0.0
2014-Sep-14 15:33N 35°41' E 139°59'0 0.0
2014-Sep-14 14:33N 35°41' E 139°59'0 0.0
2014-Sep-14 13:33N 35°41' E 139°59'0 0.0
2014-Sep-14 12:33N 35°41' E 139°59'0 0.0
2014-Sep-14 11:33N 35°41' E 139°59'0 0.0
2014-Sep-14 10:33N 35°41' E 139°59'0 0.0
2014-Sep-14 09:33N 35°41' E 139°59'0 0.0
2014-Sep-14 08:33N 35°41' E 139°59'0 0.0
2014-Sep-14 07:33N 35°41' E 139°59'0 0.0
2014-Sep-14 06:33N 35°41' E 139°59'0 0.0
2014-Sep-14 05:33N 35°41' E 139°59'0 0.0
2014-Sep-14 04:33N 35°41' E 139°59'3 2.7
2014-Sep-14 03:33N 35°38' E 139°59'2 2.3
2014-Sep-14 02:33N 35°40' E 139°57'1 0.9
2014-Sep-14 01:33N 35°41' E 139°56'5 1.2
2014-Sep-13 21:34N 35°36' E 139°57'2 1.7
2014-Sep-13 20:20N 35°34' E 139°55'0 0.0
2014-Sep-13 19:33N 35°34' E 139°55'0 0.0
2014-Sep-13 18:30N 35°34' E 139°55'4 4.0
2014-Sep-13 17:33N 35°31' E 139°53'1111.2
2014-Sep-13 16:33N 35°22' E 139°45'1010.2
2014-Sep-13 15:32N 35°11' E 139°47'21 6.6
2014-Sep-13 12:19N 34°56' E 140°05'6910.0
2014-Sep-13 05:25N 35°58' E 140°43'3 3.7
2014-Sep-13 04:33N 35°55' E 140°41'0 0.0
2014-Sep-13 03:33N 35°55' E 140°41'0 0.0
2014-Sep-13 02:32N 35°55' E 140°41'0 0.0
2014-Sep-13 01:33N 35°55' E 140°41'0 0.0
2014-Sep-13 00:32N 35°55' E 140°41'0 0.0
2014-Sep-12 23:22N 35°55' E 140°41'2 3.1
2014-Sep-12 22:33N 35°57' E 140°42'2 2.2
2014-Sep-12 21:33N 35°59' E 140°43'0 0.0
2014-Sep-12 20:33N 35°59' E 140°43'0 0.0
2014-Sep-12 19:33N 35°59' E 140°43'0 0.0
2014-Sep-12 18:33N 35°59' E 140°43'0 0.0
2014-Sep-12 17:33N 35°59' E 140°43'0 0.0
2014-Sep-12 16:33N 35°59' E 140°43'0 0.0
2014-Sep-12 15:33N 35°59' E 140°43'0 0.0
2014-Sep-12 14:33N 35°59' E 140°43'3 3.3
2014-Sep-12 13:33N 35°56' E 140°45'1312.7
2014-Sep-12 12:33N 35°46' E 140°54'3612.0
2014-Sep-12 09:32N 35°15' E 140°32'1313.8
2014-Sep-12 08:33N 35°05' E 140°21'1414.0
2014-Sep-12 07:33N 34°57' E 140°07'19 9.6
2014-Sep-12 05:33N 34°57' E 139°43'1212.4
2014-Sep-12 04:33N 35°10' E 139°45'1212.4
2014-Sep-12 03:33N 35°22' E 139°42'7 6.6
2014-Sep-12 02:33N 35°28' E 139°40'0 0.0
2014-Sep-12 01:34N 35°28' E 139°40'0 0.0
2014-Sep-12 00:33N 35°28' E 139°40'0 0.0
2014-Sep-11 23:34N 35°28' E 139°40'3 2.9
2014-Sep-11 22:33N 35°26' E 139°43'3 2.7
2014-Sep-11 21:33N 35°24' E 139°45'0 0.0
2014-Sep-11 20:33N 35°24' E 139°45'0 0.1
2014-Sep-11 19:33N 35°24' E 139°45'0 0.0
2014-Sep-11 18:27N 35°24' E 139°45'0 0.0
2014-Sep-11 17:30N 35°24' E 139°45'6 6.3
2014-Sep-11 16:33N 35°18' E 139°45'1310.5
2014-Sep-11 15:18N 35°05' E 139°45'810.8
2014-Sep-11 14:33N 34°57' E 139°44'19 9.3
2014-Sep-11 12:33N 34°58' E 140°07'4010.0
2014-Sep-11 08:33N 35°26' E 140°42'1212.0
2014-Sep-11 07:32N 35°35' E 140°52'2110.6
2014-Sep-11 05:33N 35°56' E 140°45'4 3.1
2014-Sep-11 04:16N 35°55' E 140°41'0 0.0
2014-Sep-11 03:28N 35°55' E 140°41'0 0.0
2014-Sep-11 02:30N 35°55' E 140°41'1 0.5
2014-Sep-10 23:28N 35°56' E 140°42'4 3.9
2014-Sep-10 22:28N 35°59' E 140°43'0 0.1
2014-Sep-10 21:33N 35°59' E 140°43'  

Dump ship's entire track history